Waiwera, New Zealand
Current Conditions -  °F | °C
As of 5:30 PM on Saturday 25 Oct 2014 (Local Time) from NZWN Reporting Station
Scattered Clouds Scattered Clouds  
Wind Chill: 55°   Ceiling: Unl
Heat Index: 55°   Visibility: 6mi
Dew Point: 45°   Wind: 20mph
Humidity: 67%   Direction: 360°N
Pressure: 30.09"   Gusts: NA
Location:  41.55°S, 175.46°E
Report Text: NZWN 250530Z AUTO 36017KT 9999 SCT023/// 13/07 Q1019 NOSIG
Loading
Personal Weather Stations






























Interactive Weather Map
Tropical Storm Tracking
New forecast layout! Learn more

10-Day Weather Forecast

Advertisements
Track Severe Weather on mobile